Detall de PIREP

Printer-friendly versionPDF version

[2013/07/21 08:01:00]
Flight IATA:CT2306
Pilot Number:044
Company ICAO:CAT
Aircraft Type:AT72/F
PAX:40
Departing Airport: LIEA
Destination Airport: LIRP
Online: VATSIM
Route:MINKA L5 ROMPO Q125 ELB M729 NORNI
Flight Level:F180
No Slew and time accel
No pause
Crash detect
Detect pilot in Cockpit between each 30 and 45 minutes
08:01 Zero fuel Weight: 39663 Lbs, Fuel Weight: 4340 Lbs
08:01 VATSIM:LIEA 210720Z 03008KT CAVOK 27/19 Q1015
08:01 VATSIM:LIRP 210715Z 14004KT 080V170 CAVOK 22/17 Q1016 NOSIG
08:02 VOICE CATALONIAN
08:03 Parking Brakes off
08:10 Take-off
08:10 Take off Weight: 43924 Lbs
08:10 Wind: 030º @ 008 Knots Heading: 023º
08:10 POS N40º 37´ 48´´ E008º 17´ 22´´
08:10 Gear Up: 142 Knots
08:10 Flaps:1 at 142 Knots
08:10 Flaps:0 at 145 Knots
08:25 Wind:052º@019 Knots Heading: 066º Ground Speed: 238 Knots Altitude 15853 ft
08:28 TOC
08:28 Fuel Weight: 3702 Lb
08:40 Wind:032º@016 Knots Heading: 015º Ground Speed: 267 Knots Altitude 18077 ft
08:53 TOD
08:53 Fuel Weight: 2984 Lb
08:55 Wind:039º@011 Knots Heading: 332º Ground Speed: 265 Knots Altitude 15177 ft
09:01 Flaps:1 at 168 Knots
09:04 Gear Down: 135 Knots
09:05 Flaps:2 at 157 Knots
09:10 Wind:070º@003 Knots Heading: 039º Ground Speed: 138 Knots Altitude 2132 ft
09:13 TouchDown:Rate -118 ft/min Speed: 93 Knots
09:14 VATSIM:LIRP 210845Z 07003KT 010V160 CAVOK 26/18 Q1016 BECMG 28010KT
09:14 Land
09:14 Wind:053º@003 Knots
09:14 Heading: 037º
09:14 Flight Duration: 01:04
09:14 Landing Weight: 42407 Lbs
09:14 POS N43º 40´ 47´´ E010º 23´ 25´´
09:15 Parking brakes on
09:15 Block to Block Duration: 01:12
09:15 Final Fuel: 2733 Lbls
09:15 Spent Fuel: 1607 Lbls
09:15 Flight Length: 239 NM
09:15 TOD Land Length: 61 NM

Exportar CSV

Powered by Drupal - Modified by Danger4k